createdAt,value
2022-11-21T00:01:26.706Z,14.30
2022-11-21T00:03:54.141Z,10.90
2022-11-21T00:06:22.936Z,12.30
2022-11-21T00:08:50.057Z,14.80
2022-11-21T00:11:17.543Z,13.40
2022-11-21T00:13:44.618Z,12.90
2022-11-21T00:16:14.173Z,15.30
2022-11-21T00:18:41.761Z,9.00
2022-11-21T00:21:15.544Z,17.30
2022-11-21T00:23:43.318Z,14.80
2022-11-21T00:26:13.162Z,12.70
2022-11-21T00:28:40.341Z,17.10
2022-11-21T00:31:07.444Z,12.10
2022-11-21T00:33:36.246Z,8.70
2022-11-21T00:36:09.811Z,8.60
2022-11-21T00:38:37.204Z,8.20
2022-11-21T00:41:04.934Z,11.40
2022-11-21T00:43:31.955Z,9.10
2022-11-21T00:46:00.647Z,10.80
2022-11-21T00:48:28.237Z,12.90
2022-11-21T00:50:55.200Z,13.00
2022-11-21T00:53:21.885Z,14.10
2022-11-21T00:55:48.763Z,12.40
2022-11-21T00:58:15.572Z,18.20
2022-11-21T01:00:42.429Z,11.00
2022-11-21T01:03:09.326Z,12.70
2022-11-21T01:05:36.106Z,11.20
2022-11-21T01:08:03.044Z,9.70
2022-11-21T01:10:29.804Z,15.30
2022-11-21T01:12:56.536Z,12.60
2022-11-21T01:15:23.197Z,15.60
2022-11-21T01:17:49.850Z,13.80
2022-11-21T01:20:16.663Z,13.40
2022-11-21T01:22:43.517Z,10.80
2022-11-21T01:25:10.173Z,12.40
2022-11-21T01:27:36.859Z,8.70
2022-11-21T01:30:04.461Z,14.50
2022-11-21T01:32:31.153Z,10.10
2022-11-21T01:34:57.874Z,14.00
2022-11-21T01:37:24.595Z,13.90
2022-11-21T01:39:51.399Z,11.60
2022-11-21T01:42:18.098Z,12.70
2022-11-21T01:44:52.739Z,13.40
2022-11-21T01:47:21.872Z,15.60
2022-11-21T01:49:51.570Z,7.60
2022-11-21T01:52:28.612Z,16.30
2022-11-21T01:55:10.028Z,12.70
2022-11-21T01:57:47.504Z,14.20
2022-11-21T02:00:21.329Z,11.80
2022-11-21T02:02:53.376Z,10.80
2022-11-21T02:05:25.692Z,16.40
2022-11-21T02:07:56.907Z,19.30
2022-11-21T02:10:24.397Z,10.80
2022-11-21T02:12:57.712Z,14.30
2022-11-21T02:15:27.814Z,10.30
2022-11-21T02:17:54.597Z,15.60
2022-11-21T02:20:27.933Z,14.20
2022-11-21T02:23:41.344Z,11.70
2022-11-21T02:26:08.644Z,11.60
2022-11-21T02:28:35.715Z,11.30
2022-11-21T02:31:02.406Z,11.30
2022-11-21T02:33:29.050Z,10.40
2022-11-21T02:36:00.887Z,10.50
2022-11-21T02:38:34.870Z,16.50
2022-11-21T02:41:17.937Z,13.80
2022-11-21T02:43:53.076Z,11.20
2022-11-21T02:46:20.002Z,12.60
2022-11-21T02:48:46.789Z,13.60
2022-11-21T02:51:13.769Z,9.40
2022-11-21T02:53:40.402Z,14.30
2022-11-21T02:56:07.278Z,17.60
2022-11-21T02:58:34.240Z,14.10
2022-11-21T03:01:01.068Z,11.70
2022-11-21T03:03:27.773Z,12.30
2022-11-21T03:05:55.577Z,14.70
2022-11-21T03:08:22.491Z,12.20
2022-11-21T03:10:49.214Z,16.90
2022-11-21T03:13:15.965Z,11.40
2022-11-21T03:15:42.640Z,12.20
2022-11-21T03:18:09.377Z,13.00
2022-11-21T03:20:36.067Z,13.20
2022-11-21T03:23:03.631Z,12.40
2022-11-21T03:25:30.821Z,18.50
2022-11-21T03:27:57.546Z,13.60
2022-11-21T03:30:26.437Z,16.50
2022-11-21T03:32:57.271Z,11.80
2022-11-21T03:35:25.176Z,17.10
2022-11-21T03:37:52.101Z,32.20
2022-11-21T03:40:18.947Z,15.90
2022-11-21T03:42:45.699Z,15.90
2022-11-21T03:45:12.375Z,18.30
2022-11-21T03:47:39.060Z,10.70
2022-11-21T03:50:07.260Z,15.70
2022-11-21T03:52:33.931Z,12.80
2022-11-21T03:55:00.602Z,19.10
2022-11-21T03:57:27.308Z,13.90
2022-11-21T03:59:53.954Z,11.00
2022-11-21T04:02:20.618Z,12.80
2022-11-21T04:04:47.320Z,15.50
2022-11-21T04:07:14.059Z,11.70
2022-11-21T04:09:40.698Z,18.70
2022-11-21T04:12:08.141Z,14.20
2022-11-21T04:14:34.905Z,15.20
2022-11-21T04:17:01.786Z,17.50
2022-11-21T04:19:28.606Z,12.60
2022-11-21T04:21:55.321Z,17.70
2022-11-21T04:24:22.289Z,14.70
2022-11-21T04:26:48.966Z,16.60
2022-11-21T04:29:15.665Z,13.10
2022-11-21T04:31:42.407Z,12.80
2022-11-21T04:34:09.257Z,23.20
2022-11-21T04:36:36.098Z,17.50
2022-11-21T04:39:03.733Z,16.50
2022-11-21T04:41:30.388Z,20.40
2022-11-21T04:43:57.037Z,16.50
2022-11-21T04:46:23.768Z,17.20
2022-11-21T04:48:50.506Z,18.90
2022-11-21T04:51:17.239Z,18.80
2022-11-21T04:53:43.999Z,17.60
2022-11-21T04:56:10.849Z,17.50
2022-11-21T04:58:37.772Z,24.60
2022-11-21T05:01:07.519Z,19.30
2022-11-21T05:03:35.486Z,15.30
2022-11-21T05:06:02.696Z,16.10
2022-11-21T05:08:29.545Z,16.80
2022-11-21T05:11:15.211Z,19.20
2022-11-21T05:13:41.935Z,15.40
2022-11-21T05:16:08.704Z,20.50
2022-11-21T05:18:35.350Z,21.00
2022-11-21T05:21:03.121Z,18.10
2022-11-21T05:23:29.806Z,17.30
2022-11-21T05:25:56.588Z,17.00
2022-11-21T05:28:23.357Z,15.80
2022-11-21T05:30:50.038Z,17.60
2022-11-21T05:33:16.809Z,14.50
2022-11-21T05:35:43.957Z,22.70
2022-11-21T05:38:10.866Z,17.60
2022-11-21T05:40:38.798Z,16.30
2022-11-21T05:43:24.125Z,15.70
2022-11-21T05:45:51.707Z,16.90
2022-11-21T05:48:18.456Z,18.60
2022-11-21T05:50:51.858Z,16.20
2022-11-21T05:53:18.842Z,12.70
2022-11-21T05:55:46.156Z,20.50
2022-11-21T05:58:13.511Z,20.00
2022-11-21T06:00:40.238Z,16.80
2022-11-21T06:03:29.627Z,16.60
2022-11-21T06:06:17.662Z,16.90
2022-11-21T06:08:46.717Z,14.20
2022-11-21T06:11:16.201Z,23.80
2022-11-21T06:13:43.092Z,15.70
2022-11-21T06:16:13.163Z,17.20
2022-11-21T06:18:43.056Z,13.80
2022-11-21T06:21:18.835Z,27.90
2022-11-21T06:23:47.031Z,19.00
2022-11-21T06:26:17.586Z,17.60
2022-11-21T06:28:45.659Z,19.30
2022-11-21T06:31:19.522Z,16.10
2022-11-21T06:33:47.092Z,17.20
2022-11-21T06:36:16.445Z,15.30
2022-11-21T06:38:44.454Z,20.00
2022-11-21T06:41:20.564Z,24.90
2022-11-21T06:43:47.303Z,20.60
2022-11-21T06:46:15.188Z,22.40
2022-11-21T06:48:43.057Z,23.80
2022-11-21T06:51:21.932Z,17.70
2022-11-21T06:53:57.570Z,21.80
2022-11-21T06:56:27.773Z,19.90
2022-11-21T06:58:55.173Z,20.80
2022-11-21T07:01:22.801Z,23.80
2022-11-21T07:03:49.635Z,22.80
2022-11-21T07:06:16.280Z,23.70
2022-11-21T07:08:43.078Z,17.70
2022-11-21T07:11:29.568Z,20.90
2022-11-21T07:13:56.378Z,20.50
2022-11-21T07:16:25.340Z,18.40
2022-11-21T07:18:52.140Z,20.40
2022-11-21T07:21:18.818Z,17.20
2022-11-21T07:23:45.855Z,25.20
2022-11-21T07:26:12.475Z,19.60
2022-11-21T07:28:39.484Z,23.90
2022-11-21T07:31:12.983Z,23.30
2022-11-21T07:33:46.113Z,14.10
2022-11-21T07:36:13.552Z,16.00
2022-11-21T07:38:40.600Z,20.10
2022-11-21T07:41:07.418Z,19.80
2022-11-21T07:43:34.299Z,19.00
2022-11-21T07:46:01.043Z,20.10
2022-11-21T07:48:27.792Z,21.70
2022-11-21T07:50:54.533Z,26.50
2022-11-21T07:53:21.294Z,25.40
2022-11-21T07:55:48.848Z,21.40
2022-11-21T07:58:16.758Z,23.80
2022-11-21T08:00:43.684Z,17.60
2022-11-21T08:03:12.519Z,23.00
2022-11-21T08:05:42.104Z,24.00
2022-11-21T08:08:11.147Z,23.60
2022-11-21T08:10:41.201Z,23.10
2022-11-21T08:13:08.072Z,25.50
2022-11-21T08:15:36.373Z,21.30
2022-11-21T08:18:09.802Z,19.10
2022-11-21T08:20:36.775Z,20.90
2022-11-21T08:23:05.338Z,19.20
2022-11-21T08:25:42.159Z,24.60
2022-11-21T08:28:11.148Z,20.50
2022-11-21T08:30:42.195Z,24.40
2022-11-21T08:33:09.175Z,21.30
2022-11-21T08:35:37.644Z,17.70
2022-11-21T08:38:05.330Z,22.40
2022-11-21T08:40:33.234Z,16.00
2022-11-21T08:43:08.559Z,15.90
2022-11-21T08:45:37.378Z,22.70
2022-11-21T08:48:09.999Z,18.30
2022-11-21T08:50:36.900Z,22.20
2022-11-21T08:53:03.768Z,11.90
2022-11-21T08:55:30.723Z,16.30
2022-11-21T08:57:57.975Z,16.30
2022-11-21T09:00:25.057Z,17.40
2022-11-21T09:02:51.837Z,16.00
2022-11-21T09:05:18.534Z,21.30
2022-11-21T09:07:45.437Z,16.00
2022-11-21T09:10:12.395Z,13.80
2022-11-21T09:12:39.918Z,17.20
2022-11-21T09:15:28.766Z,17.50
2022-11-21T09:18:03.148Z,17.10
2022-11-21T09:20:39.553Z,13.90
2022-11-21T09:23:09.135Z,15.30
2022-11-21T09:25:39.272Z,20.90
2022-11-21T09:28:08.956Z,20.30
2022-11-21T09:30:36.364Z,12.70
2022-11-21T09:33:10.689Z,13.00
2022-11-21T09:35:38.105Z,15.30
2022-11-21T09:38:05.170Z,13.70
2022-11-21T09:40:34.383Z,12.70
2022-11-21T09:43:56.052Z,11.20
2022-11-21T09:46:28.584Z,16.10
2022-11-21T09:49:00.625Z,12.60
2022-11-21T09:51:30.987Z,10.60
2022-11-21T09:54:26.739Z,16.70
2022-11-21T09:56:55.661Z,18.20
2022-11-21T09:59:38.314Z,15.10
2022-11-21T10:02:17.812Z,15.10
2022-11-21T10:04:47.159Z,15.10
2022-11-21T10:07:31.026Z,25.50
2022-11-21T10:10:46.944Z,15.00
2022-11-21T10:14:04.320Z,18.20
2022-11-21T10:16:53.089Z,16.00
2022-11-21T10:19:45.616Z,18.20
2022-11-21T10:22:55.979Z,17.50
2022-11-21T10:25:27.531Z,14.00
2022-11-21T10:28:21.190Z,16.80
2022-11-21T10:30:51.102Z,19.20
2022-11-21T10:33:31.231Z,12.10
2022-11-21T10:36:06.714Z,16.40
2022-11-21T10:38:38.541Z,19.60
2022-11-21T10:41:39.773Z,16.90
2022-11-21T10:44:45.496Z,20.50
2022-11-21T10:47:27.375Z,15.20
2022-11-21T10:50:09.047Z,25.10
2022-11-21T10:52:46.141Z,16.10
2022-11-21T10:55:14.108Z,19.60
2022-11-21T10:57:46.568Z,16.40
2022-11-21T11:00:13.407Z,19.00
2022-11-21T11:02:43.126Z,19.80
2022-11-21T11:05:16.065Z,14.80
2022-11-21T11:08:09.730Z,18.80
2022-11-21T11:10:42.782Z,21.40
2022-11-21T11:13:49.867Z,19.30
2022-11-21T11:16:23.392Z,14.10
2022-11-21T11:19:18.911Z,22.50
2022-11-21T11:21:46.999Z,20.20
2022-11-21T11:24:13.738Z,15.70
2022-11-21T11:26:46.422Z,16.30
2022-11-21T11:29:20.571Z,25.00
2022-11-21T11:32:03.783Z,21.00
2022-11-21T11:34:53.746Z,13.60
2022-11-21T11:37:40.785Z,13.80
2022-11-21T11:40:32.436Z,18.10
2022-11-21T11:44:06.766Z,14.00
2022-11-21T11:47:16.813Z,14.50
2022-11-21T11:50:10.702Z,18.30
2022-11-21T11:52:53.768Z,21.90
2022-11-21T11:55:48.176Z,15.00
2022-11-21T11:58:33.001Z,17.20
2022-11-21T12:01:01.090Z,15.30
2022-11-21T12:03:41.356Z,18.00
2022-11-21T12:09:56.472Z,18.00
2022-11-21T12:12:33.443Z,14.50
2022-11-21T12:15:43.937Z,21.80
2022-11-21T12:18:22.181Z,15.30
2022-11-21T12:21:18.105Z,14.30
2022-11-21T12:23:51.849Z,18.50
2022-11-21T12:26:34.499Z,13.80
2022-11-21T12:29:16.286Z,14.80
2022-11-21T12:32:19.799Z,15.20
2022-11-21T12:35:07.801Z,15.00
2022-11-21T12:38:15.039Z,15.70
2022-11-21T12:41:38.737Z,16.40
2022-11-21T12:44:29.527Z,16.70
2022-11-21T12:47:52.298Z,12.50
2022-11-21T12:50:50.456Z,15.00
2022-11-21T12:53:58.410Z,17.30
2022-11-21T12:56:53.818Z,14.30
2022-11-21T12:59:21.136Z,14.10
2022-11-21T13:02:34.318Z,13.20
2022-11-21T13:05:04.376Z,14.70
2022-11-21T13:07:32.724Z,20.10
2022-11-21T13:10:02.883Z,12.20
2022-11-21T13:12:59.682Z,14.70
2022-11-21T13:15:47.535Z,16.20
2022-11-21T13:18:25.888Z,14.30
2022-11-21T13:20:53.000Z,16.80
2022-11-21T13:23:41.179Z,13.70
2022-11-21T13:26:29.371Z,14.20
2022-11-21T13:29:13.407Z,11.00
2022-11-21T13:31:41.108Z,13.00
2022-11-21T13:34:37.848Z,14.50
2022-11-21T13:37:05.272Z,16.20
2022-11-21T13:39:34.478Z,13.40
2022-11-21T13:42:25.749Z,13.60
2022-11-21T13:44:52.941Z,11.90
2022-11-21T13:47:26.081Z,11.40
2022-11-21T13:50:14.148Z,11.10
2022-11-21T13:53:10.030Z,17.60
2022-11-21T13:55:59.395Z,10.20
2022-11-21T13:59:10.142Z,9.50
2022-11-21T14:02:17.326Z,8.70
2022-11-21T14:05:17.052Z,13.60
2022-11-21T14:07:44.975Z,12.60
2022-11-21T14:10:30.160Z,10.70
2022-11-21T14:12:57.949Z,10.10
2022-11-21T14:16:10.987Z,10.80
2022-11-21T14:18:38.988Z,9.40
2022-11-21T14:21:08.418Z,9.70
2022-11-21T14:23:43.096Z,10.80
2022-11-21T14:26:20.561Z,14.40
2022-11-21T14:28:47.659Z,12.30
2022-11-21T14:31:14.622Z,7.20
2022-11-21T14:33:43.742Z,14.20
2022-11-21T14:36:21.148Z,10.00
2022-11-21T14:39:20.842Z,15.70
2022-11-21T14:41:44.746Z,9.70
2022-11-21T14:44:11.346Z,12.40
2022-11-21T14:46:40.564Z,11.50
2022-11-21T14:49:16.397Z,7.20
2022-11-21T14:52:23.707Z,12.50
2022-11-21T14:55:28.559Z,7.20
2022-11-21T14:57:44.372Z,9.10
2022-11-21T15:06:10.488Z,9.40
2022-11-21T15:12:04.883Z,5.80
2022-11-21T15:15:03.564Z,10.10
2022-11-21T15:17:31.110Z,7.80
2022-11-21T15:20:18.345Z,7.30
2022-11-21T15:22:48.138Z,10.20
2022-11-21T15:25:21.771Z,6.20
2022-11-21T15:28:06.293Z,7.90
2022-11-21T15:30:34.458Z,10.30
2022-11-21T15:33:18.748Z,5.30
2022-11-21T15:36:11.446Z,12.40
2022-11-21T15:38:45.129Z,9.60
2022-11-21T15:41:11.998Z,8.70
2022-11-21T15:43:40.211Z,8.70
2022-11-21T15:46:42.628Z,6.00
2022-11-21T15:49:31.936Z,6.40
2022-11-21T15:54:47.370Z,5.70
2022-11-21T15:57:14.645Z,9.40
2022-11-21T15:57:15.545Z,7.90
2022-11-21T15:57:16.814Z,4.40
2022-11-21T15:59:44.686Z,6.50
2022-11-21T16:02:14.658Z,6.80
2022-11-21T16:04:41.553Z,6.20
2022-11-21T16:07:08.504Z,7.80
2022-11-21T16:09:35.823Z,7.50
2022-11-21T16:12:02.755Z,5.40
2022-11-21T16:14:29.433Z,7.70
2022-11-21T16:16:56.163Z,8.20
2022-11-21T16:19:22.868Z,11.90
2022-11-21T16:21:49.563Z,8.90
2022-11-21T16:24:16.366Z,7.70
2022-11-21T16:26:43.102Z,6.50
2022-11-21T16:29:10.184Z,5.60
2022-11-21T16:31:36.931Z,9.70
2022-11-21T16:34:03.984Z,8.90
2022-11-21T16:36:31.681Z,10.50
2022-11-21T16:39:07.623Z,8.60
2022-11-21T16:41:35.844Z,9.50
2022-11-21T16:44:02.787Z,10.30
2022-11-21T16:46:29.660Z,11.20
2022-11-21T16:49:02.011Z,11.70
2022-11-21T16:51:29.635Z,9.30
2022-11-21T16:53:57.465Z,13.80
2022-11-21T16:56:24.671Z,11.20
2022-11-21T16:58:51.631Z,8.90
2022-11-21T17:01:21.792Z,7.40
2022-11-21T17:03:49.416Z,9.70
2022-11-21T17:06:20.610Z,9.90
2022-11-21T17:08:47.354Z,9.50
2022-11-21T17:11:17.646Z,9.20
2022-11-21T17:13:47.132Z,8.10
2022-11-21T17:16:16.508Z,8.40
2022-11-21T17:18:44.196Z,11.70
2022-11-21T17:21:14.998Z,7.60
2022-11-21T17:23:44.313Z,8.40
2022-11-21T17:26:14.876Z,9.50
2022-11-21T17:28:45.632Z,8.00
2022-11-21T17:31:15.322Z,11.40
2022-11-21T17:33:43.126Z,12.60
2022-11-21T17:36:12.993Z,9.00
2022-11-21T17:38:40.142Z,10.20
2022-11-21T17:41:10.382Z,9.30
2022-11-21T17:43:37.717Z,11.30
2022-11-21T17:46:12.149Z,9.80
2022-11-21T17:48:39.934Z,9.60
2022-11-21T17:51:16.775Z,12.40
2022-11-21T17:53:47.171Z,12.40
2022-11-21T17:56:17.557Z,8.30
2022-11-21T17:58:45.006Z,11.00
2022-11-21T18:01:18.010Z,12.60
2022-11-21T18:03:53.068Z,14.30
2022-11-21T18:06:20.225Z,16.30
2022-11-21T18:08:49.035Z,17.80
2022-11-21T18:11:20.483Z,16.10
2022-11-21T18:16:21.885Z,15.30
2022-11-21T18:18:49.901Z,10.80
2022-11-21T18:21:23.715Z,16.10
2022-11-21T18:23:52.808Z,14.70
2022-11-21T18:26:25.598Z,13.70
2022-11-21T18:29:13.386Z,12.30
2022-11-21T18:31:43.362Z,15.50
2022-11-21T18:34:11.474Z,16.10
2022-11-21T18:36:38.145Z,14.80
2022-11-21T18:39:12.355Z,19.70
2022-11-21T18:41:40.642Z,16.30
2022-11-21T18:44:07.463Z,15.10
2022-11-21T18:46:36.559Z,13.90
2022-11-21T18:49:06.348Z,20.00
2022-11-21T18:51:34.990Z,14.90
2022-11-21T18:54:10.264Z,12.20
2022-11-21T18:56:38.923Z,16.90
2022-11-21T18:59:06.850Z,15.10
2022-11-21T19:01:36.093Z,15.70
2022-11-21T19:04:03.657Z,16.90
2022-11-21T19:06:30.902Z,15.60
2022-11-21T19:08:58.513Z,11.90
2022-11-21T19:11:28.725Z,14.70
2022-11-21T19:13:57.109Z,11.30
2022-11-21T19:16:26.288Z,8.50
2022-11-21T19:19:18.765Z,13.10
2022-11-21T19:21:41.523Z,15.40
2022-11-21T19:24:12.871Z,14.30
2022-11-21T19:26:39.781Z,8.90
2022-11-21T19:29:06.567Z,16.10
2022-11-21T19:31:33.264Z,13.90
2022-11-21T19:33:59.942Z,11.20
2022-11-21T19:36:26.618Z,12.90
2022-11-21T19:38:53.276Z,9.20
2022-11-21T19:41:27.382Z,13.50
2022-11-21T19:44:00.111Z,12.50
2022-11-21T19:46:32.261Z,11.70
2022-11-21T19:48:59.908Z,10.30
2022-11-21T19:51:34.495Z,8.80
2022-11-21T19:54:03.744Z,12.20
2022-11-21T19:56:30.799Z,11.80
2022-11-21T19:58:57.839Z,13.80
2022-11-21T20:01:30.613Z,14.60
2022-11-21T20:04:00.692Z,10.50
2022-11-21T20:06:35.146Z,10.40
2022-11-21T20:09:07.532Z,11.30
2022-11-21T20:11:35.241Z,9.30
2022-11-21T20:14:01.942Z,15.00
2022-11-21T20:16:34.207Z,10.40
2022-11-21T20:19:05.917Z,11.70
2022-11-21T20:21:33.159Z,12.10
2022-11-21T20:24:00.199Z,9.80
2022-11-21T20:26:27.470Z,9.10
2022-11-21T20:28:54.470Z,8.10
2022-11-21T20:31:26.259Z,10.40
2022-11-21T20:33:57.589Z,10.70
2022-11-21T20:36:27.802Z,16.00
2022-11-21T20:39:07.291Z,11.30
2022-11-21T20:41:36.560Z,12.10
2022-11-21T20:46:53.461Z,12.80
2022-11-21T20:49:20.227Z,12.00
2022-11-21T20:54:34.505Z,12.70
2022-11-21T20:57:01.247Z,13.80
2022-11-21T20:59:28.403Z,12.00
2022-11-21T21:01:55.571Z,11.80
2022-11-21T21:04:22.319Z,7.70
2022-11-21T21:06:49.088Z,13.10
2022-11-21T21:09:15.812Z,7.30
2022-11-21T21:11:52.547Z,10.30
2022-11-21T21:14:23.606Z,10.20
2022-11-21T21:16:50.323Z,11.80
2022-11-21T21:19:17.856Z,15.80
2022-11-21T21:21:44.834Z,10.70
2022-11-21T21:24:12.467Z,10.30
2022-11-21T21:26:47.821Z,9.20
2022-11-21T21:29:18.808Z,9.30
2022-11-21T21:31:50.958Z,9.80
2022-11-21T21:34:20.755Z,7.40
2022-11-21T21:36:48.708Z,8.90
2022-11-21T21:39:15.551Z,12.00
2022-11-21T21:41:45.375Z,9.50
2022-11-21T21:44:13.223Z,7.70
2022-11-21T21:46:39.906Z,10.50
2022-11-21T21:49:06.579Z,9.00
2022-11-21T21:51:35.713Z,10.20
2022-11-21T21:54:03.154Z,6.50
2022-11-21T21:56:29.904Z,10.20
2022-11-21T21:58:57.649Z,9.90
2022-11-21T22:01:30.451Z,6.80
2022-11-21T22:04:03.044Z,6.80
2022-11-21T22:06:33.391Z,7.10
2022-11-21T22:09:00.588Z,12.20
2022-11-21T22:11:31.208Z,10.00
2022-11-21T22:14:01.727Z,9.80
2022-11-21T22:16:29.803Z,7.90
2022-11-21T22:18:57.516Z,9.50
2022-11-21T22:21:33.574Z,18.50
2022-11-21T22:24:24.333Z,8.80
2022-11-21T22:26:49.778Z,11.60
2022-11-21T22:29:16.679Z,8.00
2022-11-21T22:31:43.407Z,11.00
2022-11-21T22:34:13.676Z,8.20
2022-11-21T22:36:40.858Z,6.00
2022-11-21T22:39:07.586Z,6.20
2022-11-21T22:41:34.258Z,6.60
2022-11-21T22:44:00.910Z,10.40
2022-11-21T22:46:29.886Z,7.10
2022-11-21T22:48:56.818Z,10.40
2022-11-21T22:51:28.436Z,5.90
2022-11-21T22:53:55.317Z,7.00
2022-11-21T22:56:23.636Z,6.30
2022-11-21T22:58:51.101Z,5.70
2022-11-21T23:01:21.594Z,11.90
2022-11-21T23:03:48.966Z,9.10
2022-11-21T23:06:19.410Z,5.70
2022-11-21T23:08:46.768Z,8.30
2022-11-21T23:11:22.038Z,8.40
2022-11-21T23:13:49.663Z,6.70
2022-11-21T23:16:17.640Z,10.90
2022-11-21T23:18:44.960Z,7.40
2022-11-21T23:21:12.782Z,9.70
2022-11-21T23:23:40.263Z,9.00
2022-11-21T23:26:07.254Z,6.10
2022-11-21T23:28:34.106Z,8.00
2022-11-21T23:31:00.892Z,8.20
2022-11-21T23:33:27.673Z,6.00
2022-11-21T23:35:54.547Z,10.40
2022-11-21T23:38:21.310Z,9.30
2022-11-21T23:40:49.019Z,10.40
2022-11-21T23:43:17.214Z,5.60
2022-11-21T23:45:47.080Z,7.00
2022-11-21T23:48:13.873Z,7.70
2022-11-21T23:50:40.595Z,10.90
2022-11-21T23:53:08.545Z,9.80
2022-11-21T23:55:35.631Z,7.70
2022-11-21T23:58:02.362Z,7.40
